createdAt,value
2022-10-17T00:00:10.952Z,98140.31
2022-10-17T00:02:37.632Z,98141.19
2022-10-17T00:05:05.950Z,98150.81
2022-10-17T00:07:32.668Z,98142.59
2022-10-17T00:09:59.522Z,98139.72
2022-10-17T00:12:26.312Z,98142.22
2022-10-17T00:14:52.967Z,98145.72
2022-10-17T00:17:19.677Z,98152.50
2022-10-17T00:19:46.340Z,98148.13
2022-10-17T00:22:14.911Z,98149.59
2022-10-17T00:24:41.568Z,98153.25
2022-10-17T00:27:08.428Z,98163.72
2022-10-17T00:29:35.073Z,98163.09
2022-10-17T00:32:01.762Z,98165.66
2022-10-17T00:34:31.144Z,98164.38
2022-10-17T00:36:57.919Z,98155.22
2022-10-17T00:39:26.051Z,98157.78
2022-10-17T00:41:52.726Z,98159.41
2022-10-17T00:44:57.007Z,98171.00
2022-10-17T00:47:23.723Z,98177.09
2022-10-17T00:49:50.609Z,98179.66
2022-10-17T00:52:21.453Z,98173.38
2022-10-17T00:54:53.956Z,98174.31
2022-10-17T00:57:20.838Z,98170.16
2022-10-17T00:59:51.628Z,98176.44
2022-10-17T01:02:20.885Z,98174.31
2022-10-17T01:04:50.016Z,98170.44
2022-10-17T01:07:16.870Z,98164.50
2022-10-17T01:09:45.228Z,98175.09
2022-10-17T01:12:20.022Z,98185.91
2022-10-17T01:14:57.903Z,98170.31
2022-10-17T01:17:32.169Z,98169.66
2022-10-17T01:20:37.536Z,98172.56
2022-10-17T01:23:24.002Z,98176.44
2022-10-17T01:25:57.128Z,98162.59
2022-10-17T01:28:45.249Z,98171.59
2022-10-17T01:31:14.777Z,98164.34
2022-10-17T01:33:51.491Z,98166.31
2022-10-17T01:36:32.332Z,98167.72
2022-10-17T01:39:03.762Z,98169.97
2022-10-17T01:41:40.083Z,98165.13
2022-10-17T01:44:13.547Z,98166.91
2022-10-17T01:46:46.948Z,98170.81
2022-10-17T01:49:17.328Z,98164.81
2022-10-17T01:51:48.112Z,98155.78
2022-10-17T01:54:21.403Z,98155.50
2022-10-17T01:56:52.391Z,98159.03
2022-10-17T01:59:23.798Z,98166.75
2022-10-17T02:01:54.898Z,98157.41
2022-10-17T02:04:22.451Z,98163.53
2022-10-17T02:06:49.296Z,98159.81
2022-10-17T02:09:21.885Z,98150.94
2022-10-17T02:12:02.708Z,98146.63
2022-10-17T02:14:41.611Z,98143.25
2022-10-17T02:17:17.413Z,98147.75
2022-10-17T02:19:54.332Z,98144.22
2022-10-17T02:22:29.938Z,98155.00
2022-10-17T02:25:03.562Z,98154.03
2022-10-17T02:27:33.903Z,98156.13
2022-10-17T02:30:07.021Z,98149.88
2022-10-17T02:32:46.605Z,98155.19
2022-10-17T02:35:19.746Z,98153.41
2022-10-17T02:37:48.657Z,98160.78
2022-10-17T02:40:18.964Z,98169.66
2022-10-17T02:42:46.457Z,98173.72
2022-10-17T02:45:14.829Z,98166.63
2022-10-17T02:47:54.368Z,98171.78
2022-10-17T02:53:01.336Z,98167.91
2022-10-17T02:55:32.359Z,98173.25
2022-10-17T02:58:04.233Z,98174.84
2022-10-17T03:00:31.794Z,98173.06
2022-10-17T03:02:59.893Z,98174.69
2022-10-17T03:05:28.338Z,98172.91
2022-10-17T03:07:56.264Z,98174.22
2022-10-17T03:10:23.218Z,98179.50
2022-10-17T03:12:50.086Z,98170.50
2022-10-17T03:15:16.899Z,98175.00
2022-10-17T03:20:17.074Z,98176.88
2022-10-17T03:22:43.887Z,98177.97
2022-10-17T03:25:10.571Z,98170.13
2022-10-17T03:27:37.289Z,98168.44
2022-10-17T03:30:04.553Z,98178.16
2022-10-17T03:32:33.141Z,98184.19
2022-10-17T03:34:59.879Z,98195.38
2022-10-17T03:37:28.336Z,98204.16
2022-10-17T03:39:55.570Z,98207.88
2022-10-17T03:42:23.042Z,98210.03
2022-10-17T03:44:49.739Z,98207.13
2022-10-17T03:47:16.394Z,98207.88
2022-10-17T03:49:42.988Z,98208.41
2022-10-17T03:52:12.333Z,98202.25
2022-10-17T03:54:40.572Z,98207.28
2022-10-17T03:57:07.464Z,98208.00
2022-10-17T03:59:34.239Z,98204.47
2022-10-17T04:02:00.937Z,98223.22
2022-10-17T04:04:27.865Z,98224.00
2022-10-17T04:06:54.534Z,98227.25
2022-10-17T04:09:21.173Z,98228.66
2022-10-17T04:11:49.234Z,98237.94
2022-10-17T04:14:15.892Z,98235.81
2022-10-17T04:16:42.594Z,98234.69
2022-10-17T04:19:12.807Z,98239.34
2022-10-17T04:21:39.787Z,98225.22
2022-10-17T04:24:06.503Z,98233.81
2022-10-17T04:26:33.114Z,98232.41
2022-10-17T04:29:01.479Z,98230.47
2022-10-17T04:31:28.242Z,98228.25
2022-10-17T04:33:54.937Z,98221.09
2022-10-17T04:36:23.014Z,98220.53
2022-10-17T04:38:49.623Z,98230.03
2022-10-17T04:41:18.302Z,98228.69
2022-10-17T04:43:48.577Z,98229.22
2022-10-17T04:46:19.249Z,62402.38
2022-10-17T04:48:46.017Z,62402.38
2022-10-17T04:51:14.809Z,62402.38
2022-10-17T04:53:42.945Z,62402.38
2022-10-17T04:56:10.920Z,62402.38
2022-10-17T04:58:38.043Z,62402.38
2022-10-17T05:01:06.235Z,98258.41
2022-10-17T05:03:35.220Z,98262.19
2022-10-17T05:06:06.338Z,98274.72
2022-10-17T05:08:33.400Z,98269.50
2022-10-17T05:13:32.693Z,98265.63
2022-10-17T05:16:00.833Z,98267.97
2022-10-17T05:18:27.703Z,98256.56
2022-10-17T05:20:55.876Z,98256.19
2022-10-17T05:23:22.559Z,98251.28
2022-10-17T05:25:54.155Z,98244.19
2022-10-17T05:28:21.028Z,98246.94
2022-10-17T05:30:47.857Z,98256.09
2022-10-17T05:33:14.720Z,98255.69
2022-10-17T05:35:41.628Z,98261.34
2022-10-17T05:38:09.770Z,98257.88
2022-10-17T05:40:36.487Z,98261.34
2022-10-17T05:43:03.605Z,98262.44
2022-10-17T05:45:30.344Z,98259.16
2022-10-17T05:47:57.294Z,98263.97
2022-10-17T05:50:25.270Z,98261.63
2022-10-17T05:52:53.870Z,98257.78
2022-10-17T05:55:22.173Z,98249.88
2022-10-17T05:57:49.603Z,98257.59
2022-10-17T06:00:19.195Z,98269.56
2022-10-17T06:02:48.521Z,98265.63
2022-10-17T06:05:15.510Z,62402.38
2022-10-17T06:07:42.324Z,98263.59
2022-10-17T06:10:12.399Z,98258.63
2022-10-17T06:12:40.558Z,98274.03
2022-10-17T06:15:08.687Z,98271.44
2022-10-17T06:17:35.970Z,98272.00
2022-10-17T06:20:03.047Z,98283.34
2022-10-17T06:22:30.027Z,98286.16
2022-10-17T06:24:57.061Z,98289.31
2022-10-17T06:27:23.786Z,98289.13
2022-10-17T06:29:52.033Z,98296.81
2022-10-17T06:32:18.869Z,98296.81
2022-10-17T06:34:45.631Z,98301.28
2022-10-17T06:37:12.385Z,98301.28
2022-10-17T06:39:39.175Z,98306.50
2022-10-17T06:42:05.896Z,98301.84
2022-10-17T06:44:32.647Z,98306.84
2022-10-17T06:47:01.686Z,98317.16
2022-10-17T06:49:28.834Z,98324.13
2022-10-17T06:52:10.456Z,98326.97
2022-10-17T06:54:37.228Z,98333.38
2022-10-17T06:57:04.006Z,98336.88
2022-10-17T06:59:30.740Z,98335.34
2022-10-17T07:01:57.840Z,98330.75
2022-10-17T07:04:26.000Z,98336.69
2022-10-17T07:06:52.831Z,98326.97
2022-10-17T07:09:19.701Z,98327.44
2022-10-17T07:11:46.512Z,98328.81
2022-10-17T07:14:13.168Z,98329.31
2022-10-17T07:16:40.107Z,98334.63
2022-10-17T07:19:06.872Z,98334.69
2022-10-17T07:21:38.218Z,98340.81
2022-10-17T07:24:07.689Z,98340.88
2022-10-17T07:26:34.505Z,98343.31
2022-10-17T07:29:01.952Z,98346.34
2022-10-17T07:31:29.041Z,98345.09
2022-10-17T07:33:56.211Z,98338.84
2022-10-17T07:36:22.974Z,98347.41
2022-10-17T07:38:51.368Z,98351.72
2022-10-17T07:41:21.716Z,98336.00
2022-10-17T07:43:49.517Z,98342.16
2022-10-17T07:46:16.491Z,98347.34
2022-10-17T07:48:43.414Z,98355.72
2022-10-17T07:51:10.398Z,98354.47
2022-10-17T07:53:39.094Z,98352.69
2022-10-17T07:56:08.804Z,98352.19
2022-10-17T07:58:36.602Z,98358.28
2022-10-17T08:01:03.861Z,98362.97
2022-10-17T08:03:30.818Z,98352.22
2022-10-17T08:05:58.811Z,98365.72
2022-10-17T08:08:25.595Z,98356.50
2022-10-17T08:10:52.519Z,98348.91
2022-10-17T08:13:20.937Z,98356.31
2022-10-17T08:15:48.020Z,98346.47
2022-10-17T08:18:14.808Z,98364.03
2022-10-17T08:20:41.523Z,98361.16
2022-10-17T08:23:08.226Z,98364.22
2022-10-17T08:25:35.018Z,98364.03
2022-10-17T08:28:01.875Z,98361.94
2022-10-17T08:30:30.806Z,98368.84
2022-10-17T08:32:57.731Z,98358.22
2022-10-17T08:35:24.323Z,98362.44
2022-10-17T08:37:51.118Z,98350.00
2022-10-17T08:40:22.519Z,98350.00
2022-10-17T08:43:01.886Z,98353.81
2022-10-17T08:45:35.898Z,98352.19
2022-10-17T08:48:06.273Z,98348.28
2022-10-17T08:50:37.245Z,98350.75
2022-10-17T08:53:12.505Z,98338.47
2022-10-17T08:55:45.324Z,98339.72
2022-10-17T08:58:14.643Z,98338.38
2022-10-17T09:00:48.433Z,98341.44
2022-10-17T09:03:37.061Z,98331.81
2022-10-17T09:06:15.779Z,98341.72
2022-10-17T09:08:51.712Z,98346.72
2022-10-17T09:11:33.506Z,98344.13
2022-10-17T09:14:12.249Z,98343.28
2022-10-17T09:16:58.635Z,98351.41
2022-10-17T09:19:31.189Z,98353.66
2022-10-17T09:22:01.795Z,98359.78
2022-10-17T09:24:42.548Z,98358.22
2022-10-17T09:27:20.773Z,98353.81
2022-10-17T09:29:50.539Z,98374.44
2022-10-17T09:32:24.455Z,98374.44
2022-10-17T09:34:53.046Z,62402.38
2022-10-17T09:37:27.843Z,62402.38
2022-10-17T09:39:54.908Z,62402.38
2022-10-17T09:42:28.632Z,62402.38
2022-10-17T09:45:16.614Z,62402.38
2022-10-17T09:47:51.292Z,62402.38
2022-10-17T09:50:27.243Z,98379.06
2022-10-17T09:52:56.250Z,98368.50
2022-10-17T09:55:30.471Z,98354.19
2022-10-17T09:57:59.008Z,98357.28
2022-10-17T10:00:29.421Z,98360.16
2022-10-17T10:03:14.423Z,98367.72
2022-10-17T10:05:42.357Z,98377.72
2022-10-17T10:08:15.762Z,98393.66
2022-10-17T10:10:43.840Z,98386.44
2022-10-17T10:13:20.433Z,98386.88
2022-10-17T10:15:49.606Z,98404.41
2022-10-17T10:18:33.905Z,98404.66
2022-10-17T10:21:10.237Z,98408.81
2022-10-17T10:23:41.289Z,98405.59
2022-10-17T10:26:21.615Z,98406.38
2022-10-17T10:28:58.114Z,98412.31
2022-10-17T10:31:32.042Z,98423.09
2022-10-17T10:34:03.785Z,98418.06
2022-10-17T10:36:59.258Z,98409.25
2022-10-17T10:39:43.124Z,98418.06
2022-10-17T10:42:22.555Z,98416.09
2022-10-17T10:44:52.557Z,98422.41
2022-10-17T10:47:25.761Z,98427.38
2022-10-17T10:50:08.650Z,98434.69
2022-10-17T10:52:43.252Z,98433.97
2022-10-17T10:55:23.222Z,98444.31
2022-10-17T10:57:53.271Z,98437.44
2022-10-17T11:00:24.554Z,98434.97
2022-10-17T11:03:01.688Z,98436.06
2022-10-17T11:05:41.778Z,98428.16
2022-10-17T11:08:15.380Z,98427.50
2022-10-17T11:10:48.430Z,98429.88
2022-10-17T11:13:21.160Z,98430.56
2022-10-17T11:15:55.250Z,98426.78
2022-10-17T11:18:26.612Z,98422.75
2022-10-17T11:21:00.058Z,98415.09
2022-10-17T11:23:29.035Z,98416.28
2022-10-17T11:26:00.158Z,98422.50
2022-10-17T11:28:27.122Z,98422.88
2022-10-17T11:31:03.358Z,98418.91
2022-10-17T11:33:41.983Z,98431.69
2022-10-17T11:36:11.988Z,98426.53
2022-10-17T11:38:45.801Z,98421.97
2022-10-17T11:41:20.619Z,98427.47
2022-10-17T11:43:51.858Z,98425.56
2022-10-17T11:46:23.901Z,98428.63
2022-10-17T11:49:02.245Z,62402.38
2022-10-17T11:54:34.389Z,62402.38
2022-10-17T11:57:15.526Z,98428.63
2022-10-17T11:59:54.622Z,98456.41
2022-10-17T12:02:33.186Z,98455.78
2022-10-17T12:05:06.910Z,98442.09
2022-10-17T12:07:44.162Z,98441.81
2022-10-17T12:10:24.955Z,62402.38
2022-10-17T12:12:51.954Z,62402.38
2022-10-17T12:15:30.308Z,62402.38
2022-10-17T12:18:00.939Z,62402.38
2022-10-17T12:20:34.725Z,62402.38
2022-10-17T12:23:05.251Z,98440.81
2022-10-17T12:25:34.305Z,98440.34
2022-10-17T12:28:13.233Z,98442.84
2022-10-17T12:30:55.346Z,62402.38
2022-10-17T12:33:26.783Z,62402.38
2022-10-17T12:36:44.006Z,62402.38
2022-10-17T12:39:50.302Z,62402.38
2022-10-17T12:42:33.401Z,62402.38
2022-10-17T12:45:00.869Z,62402.38
2022-10-17T12:47:38.472Z,62402.38
2022-10-17T12:50:39.311Z,62402.38
2022-10-17T12:53:08.502Z,98471.72
2022-10-17T12:55:36.231Z,98466.28
2022-10-17T12:58:11.701Z,98470.84
2022-10-17T13:01:11.581Z,98470.34
2022-10-17T13:03:44.954Z,98476.00
2022-10-17T13:06:21.214Z,98476.53
2022-10-17T13:08:56.133Z,98474.66
2022-10-17T13:11:28.154Z,98477.22
2022-10-17T13:13:59.181Z,98466.72
2022-10-17T13:16:31.791Z,98463.31
2022-10-17T13:18:59.059Z,98470.81
2022-10-17T13:21:26.143Z,98474.81
2022-10-17T13:23:54.389Z,98469.97
2022-10-17T13:26:25.591Z,98480.06
2022-10-17T13:29:04.357Z,98477.97
2022-10-17T13:31:33.291Z,98483.03
2022-10-17T13:34:01.745Z,98481.09
2022-10-17T13:36:30.421Z,98481.09
2022-10-17T13:38:59.110Z,98484.47
2022-10-17T13:41:37.080Z,98482.16
2022-10-17T13:44:13.380Z,62402.38
2022-10-17T13:46:40.781Z,98482.16
2022-10-17T13:49:18.729Z,98488.50
2022-10-17T13:51:47.740Z,98491.63
2022-10-17T13:54:33.011Z,98492.00
2022-10-17T13:57:01.742Z,98496.72
2022-10-17T13:59:38.664Z,98501.88
2022-10-17T14:02:12.469Z,98495.47
2022-10-17T14:05:04.050Z,98496.50
2022-10-17T14:07:41.550Z,98501.09
2022-10-17T14:10:20.608Z,98505.47
2022-10-17T14:12:50.431Z,98503.75
2022-10-17T14:15:22.103Z,98500.78
2022-10-17T14:17:54.992Z,98500.78
2022-10-17T14:23:30.142Z,98503.41
2022-10-17T14:26:05.912Z,98496.72
2022-10-17T14:28:32.643Z,98498.22
2022-10-17T14:31:22.300Z,98504.31
2022-10-17T14:33:51.168Z,98507.34
2022-10-17T14:36:19.402Z,98512.53
2022-10-17T14:38:47.948Z,98518.34
2022-10-17T14:44:21.608Z,98522.22
2022-10-17T14:46:53.989Z,98517.78
2022-10-17T14:49:25.984Z,98523.28
2022-10-17T14:52:27.838Z,98525.63
2022-10-17T14:54:55.490Z,98523.94
2022-10-17T14:57:28.690Z,98533.09
2022-10-17T14:59:56.327Z,98531.09
2022-10-17T15:02:25.532Z,98528.66
2022-10-17T15:04:52.874Z,98533.31
2022-10-17T15:07:21.311Z,98534.59
2022-10-17T15:09:50.373Z,98541.16
2022-10-17T15:12:18.682Z,98545.50
2022-10-17T15:14:47.894Z,98549.84
2022-10-17T15:17:17.099Z,98548.84
2022-10-17T15:19:45.498Z,98556.88
2022-10-17T15:22:15.092Z,98558.47
2022-10-17T15:24:43.271Z,98561.53
2022-10-17T15:27:15.758Z,98554.38
2022-10-17T15:29:42.675Z,98558.53
2022-10-17T15:32:09.552Z,98566.66
2022-10-17T15:34:36.397Z,98558.44
2022-10-17T15:37:05.592Z,98562.41
2022-10-17T15:39:32.479Z,98556.84
2022-10-17T15:41:59.879Z,98559.38
2022-10-17T15:44:26.733Z,98547.47
2022-10-17T15:46:55.706Z,98561.47
2022-10-17T15:49:22.394Z,98553.91
2022-10-17T15:51:54.378Z,98565.41
2022-10-17T15:54:23.472Z,98561.75
2022-10-17T15:56:55.138Z,98561.59
2022-10-17T15:59:26.037Z,98563.44
2022-10-17T16:01:53.001Z,98558.47
2022-10-17T16:04:19.673Z,98566.88
2022-10-17T16:06:46.437Z,98569.91
2022-10-17T16:09:13.269Z,98580.06
2022-10-17T16:11:42.931Z,98582.19
2022-10-17T16:14:12.678Z,98581.19
2022-10-17T16:19:26.334Z,98592.25
2022-10-17T16:21:53.902Z,98588.56
2022-10-17T16:24:20.844Z,98594.38
2022-10-17T16:26:49.167Z,98583.88
2022-10-17T16:29:16.632Z,98594.16
2022-10-17T16:31:45.642Z,98594.81
2022-10-17T16:34:14.122Z,98593.81
2022-10-17T16:36:41.670Z,62402.38
2022-10-17T16:39:08.593Z,98601.25
2022-10-17T16:41:37.018Z,98603.44
2022-10-17T16:44:06.686Z,98605.88
2022-10-17T16:46:35.777Z,98607.25
2022-10-17T16:49:03.836Z,98608.50
2022-10-17T16:51:31.311Z,98607.94
2022-10-17T16:54:00.400Z,98620.88
2022-10-17T16:56:32.632Z,98619.31
2022-10-17T16:59:00.130Z,98620.75
2022-10-17T17:01:31.462Z,98622.41
2022-10-17T17:03:58.308Z,98622.03
2022-10-17T17:06:27.193Z,98618.72
2022-10-17T17:08:55.057Z,98620.88
2022-10-17T17:11:24.295Z,98631.81
2022-10-17T17:13:51.174Z,98631.84
2022-10-17T17:16:21.482Z,98639.56
2022-10-17T17:18:53.526Z,98641.50
2022-10-17T17:21:20.332Z,98646.34
2022-10-17T17:23:47.049Z,98634.34
2022-10-17T17:26:16.171Z,98639.09
2022-10-17T17:28:43.981Z,98643.84
2022-10-17T17:31:13.971Z,98640.31
2022-10-17T17:33:42.000Z,98647.78
2022-10-17T17:36:12.747Z,98649.56
2022-10-17T17:38:41.263Z,98651.19
2022-10-17T17:41:12.125Z,98650.28
2022-10-17T17:43:39.079Z,98647.63
2022-10-17T17:46:06.413Z,98650.94
2022-10-17T17:48:33.212Z,98650.75
2022-10-17T17:51:03.816Z,98658.72
2022-10-17T17:53:32.103Z,98652.53
2022-10-17T17:56:03.057Z,98655.56
2022-10-17T17:58:29.773Z,98662.44
2022-10-17T18:00:56.558Z,98656.66
2022-10-17T18:03:23.303Z,98662.03
2022-10-17T18:05:50.042Z,98659.50
2022-10-17T18:08:16.802Z,98664.47
2022-10-17T18:10:49.427Z,98667.59
2022-10-17T18:13:16.808Z,98663.13
2022-10-17T18:15:43.890Z,62402.38
2022-10-17T18:18:10.647Z,62402.38
2022-10-17T18:20:40.686Z,62402.38
2022-10-17T18:23:07.666Z,62402.38
2022-10-17T18:25:34.403Z,62402.38
2022-10-17T18:28:02.740Z,62402.38
2022-10-17T18:30:33.743Z,62402.38
2022-10-17T18:33:01.422Z,62402.38
2022-10-17T18:35:28.121Z,62402.38
2022-10-17T18:37:57.188Z,62402.38
2022-10-17T18:40:24.336Z,62402.38
2022-10-17T18:42:51.079Z,98663.13
2022-10-17T18:45:19.361Z,98692.47
2022-10-17T18:47:47.404Z,98692.91
2022-10-17T18:50:14.446Z,98691.34
2022-10-17T18:52:41.145Z,98688.94
2022-10-17T18:55:09.185Z,98690.41
2022-10-17T18:57:36.206Z,98686.41
2022-10-17T19:00:04.453Z,98688.91
2022-10-17T19:02:35.569Z,98685.63
2022-10-17T19:05:05.300Z,98686.22
2022-10-17T19:07:32.595Z,98694.69
2022-10-17T19:09:59.685Z,98691.91
2022-10-17T19:12:26.512Z,98695.78
2022-10-17T19:14:53.404Z,98692.84
2022-10-17T19:17:20.200Z,98694.22
2022-10-17T19:19:51.765Z,98680.88
2022-10-17T19:22:18.568Z,98681.19
2022-10-17T19:24:45.542Z,98678.53
2022-10-17T19:27:12.328Z,98680.72
2022-10-17T19:29:43.528Z,98679.63
2022-10-17T19:32:15.592Z,98680.94
2022-10-17T19:34:44.953Z,98689.13
2022-10-17T19:37:13.077Z,98680.94
2022-10-17T19:39:39.779Z,98691.50
2022-10-17T19:42:07.683Z,98690.09
2022-10-17T19:44:34.712Z,98684.44
2022-10-17T19:47:01.483Z,98682.22
2022-10-17T19:49:28.445Z,98687.66
2022-10-17T19:51:55.148Z,98682.81
2022-10-17T19:54:23.641Z,98688.72
2022-10-17T19:56:50.861Z,98678.06
2022-10-17T19:59:18.233Z,98675.03
2022-10-17T20:01:46.196Z,98681.03
2022-10-17T20:04:13.429Z,98684.50
2022-10-17T20:06:41.158Z,98678.75
2022-10-17T20:09:13.890Z,98665.66
2022-10-17T20:11:45.043Z,98664.50
2022-10-17T20:14:12.040Z,98668.63
2022-10-17T20:16:39.028Z,98672.72
2022-10-17T20:19:08.587Z,98675.22
2022-10-17T20:21:50.423Z,98678.75
2022-10-17T20:24:17.499Z,98690.75
2022-10-17T20:26:46.115Z,98689.72
2022-10-17T20:29:15.284Z,98701.13
2022-10-17T20:31:43.651Z,98701.13
2022-10-17T20:34:13.836Z,98697.28
2022-10-17T20:36:40.996Z,98700.84
2022-10-17T20:39:08.101Z,98702.75
2022-10-17T20:41:35.362Z,98700.03
2022-10-17T20:44:03.715Z,98704.69
2022-10-17T20:46:38.474Z,98704.94
2022-10-17T20:49:09.906Z,98701.13
2022-10-17T20:51:36.778Z,98698.69
2022-10-17T20:54:04.210Z,98699.00
2022-10-17T20:56:32.491Z,98691.97
2022-10-17T20:59:01.331Z,98696.81
2022-10-17T21:01:31.457Z,98698.41
2022-10-17T21:04:06.086Z,98699.22
2022-10-17T21:06:42.911Z,98699.44
2022-10-17T21:09:09.898Z,98705.78
2022-10-17T21:11:36.721Z,98716.59
2022-10-17T21:14:05.709Z,98702.75
2022-10-17T21:16:36.493Z,98718.22
2022-10-17T21:19:04.251Z,98711.44
2022-10-17T21:21:33.898Z,98712.69
2022-10-17T21:24:02.046Z,98706.44
2022-10-17T21:26:29.507Z,98703.19
2022-10-17T21:28:58.003Z,98699.38
2022-10-17T21:31:27.757Z,98697.75
2022-10-17T21:33:57.652Z,98689.50
2022-10-17T21:36:25.938Z,98692.75
2022-10-17T21:38:54.509Z,98687.75
2022-10-17T21:41:22.909Z,98687.19
2022-10-17T21:43:53.238Z,98693.22
2022-10-17T21:46:20.749Z,98693.22
2022-10-17T21:48:48.694Z,98706.53
2022-10-17T21:51:18.732Z,98698.13
2022-10-17T21:53:45.890Z,98694.03
2022-10-17T21:56:15.069Z,98696.44
2022-10-17T21:58:42.469Z,98694.25
2022-10-17T22:01:11.047Z,98688.19
2022-10-17T22:03:44.051Z,98683.06
2022-10-17T22:09:04.552Z,98702.06
2022-10-17T22:11:35.014Z,98705.00
2022-10-17T22:14:03.752Z,98705.78
2022-10-17T22:16:30.467Z,98704.13
2022-10-17T22:19:00.514Z,98699.97
2022-10-17T22:21:29.998Z,98694.97
2022-10-17T22:24:00.519Z,98693.53
2022-10-17T22:26:30.145Z,98692.91
2022-10-17T22:28:57.253Z,98691.38
2022-10-17T22:31:23.984Z,98686.28
2022-10-17T22:33:50.675Z,98695.41
2022-10-17T22:36:17.368Z,98689.44
2022-10-17T22:38:44.106Z,98686.72
2022-10-17T22:41:10.817Z,98691.06
2022-10-17T22:43:38.931Z,98686.72
2022-10-17T22:46:07.281Z,98689.97
2022-10-17T22:48:34.600Z,98682.88
2022-10-17T22:51:02.121Z,98679.66
2022-10-17T22:53:30.047Z,98683.50
2022-10-17T22:55:58.435Z,98673.97
2022-10-17T22:58:25.682Z,98676.66
2022-10-17T23:00:54.698Z,98676.34
2022-10-17T23:03:22.077Z,98679.50
2022-10-17T23:05:48.868Z,98672.94
2022-10-17T23:08:17.860Z,98672.41
2022-10-17T23:10:44.918Z,98669.38
2022-10-17T23:13:11.855Z,98673.25
2022-10-17T23:15:38.618Z,98665.34
2022-10-17T23:18:07.696Z,98661.31
2022-10-17T23:20:34.620Z,98667.78
2022-10-17T23:23:01.348Z,98673.25
2022-10-17T23:25:28.127Z,98672.13
2022-10-17T23:27:54.758Z,98666.88
2022-10-17T23:30:21.202Z,98667.19
2022-10-17T23:32:47.717Z,98658.78
2022-10-17T23:35:15.760Z,98656.69
2022-10-17T23:37:42.197Z,98670.38
2022-10-17T23:40:09.385Z,98672.28
2022-10-17T23:42:36.047Z,98673.41
2022-10-17T23:45:02.702Z,98688.66
2022-10-17T23:47:33.051Z,98674.81
2022-10-17T23:49:59.839Z,98674.81
2022-10-17T23:52:27.656Z,98667.72
2022-10-17T23:54:54.074Z,98671.56
2022-10-17T23:57:20.539Z,98672.44
2022-10-17T23:59:47.185Z,98672.75
